sensor_id;sensor_type;location;lat;lon;timestamp;P1;durP1;ratioP1;P2;durP2;ratioP2
69240;SDS011;56352;55.750;13.198;2022-11-20T00:01:12;9.60;;;5.65;;
69240;SDS011;56352;55.750;13.198;2022-11-20T00:03:39;8.40;;;6.35;;
69240;SDS011;56352;55.750;13.198;2022-11-20T00:06:06;7.50;;;6.30;;
69240;SDS011;56352;55.750;13.198;2022-11-20T00:08:33;8.23;;;6.68;;
69240;SDS011;56352;55.750;13.198;2022-11-20T00:11:03;7.80;;;6.25;;
69240;SDS011;56352;55.750;13.198;2022-11-20T00:13:30;8.88;;;6.95;;
69240;SDS011;56352;55.750;13.198;2022-11-20T00:15:57;8.80;;;6.10;;
69240;SDS011;56352;55.750;13.198;2022-11-20T00:18:24;8.23;;;6.10;;
69240;SDS011;56352;55.750;13.198;2022-11-20T00:20:51;9.13;;;5.30;;
69240;SDS011;56352;55.750;13.198;2022-11-20T00:23:17;6.55;;;4.47;;
69240;SDS011;56352;55.750;13.198;2022-11-20T00:25:44;4.68;;;4.10;;
69240;SDS011;56352;55.750;13.198;2022-11-20T00:28:10;5.72;;;4.45;;
69240;SDS011;56352;55.750;13.198;2022-11-20T00:30:36;5.20;;;3.97;;
69240;SDS011;56352;55.750;13.198;2022-11-20T00:33:03;4.68;;;3.40;;
69240;SDS011;56352;55.750;13.198;2022-11-20T00:35:29;3.03;;;2.40;;
69240;SDS011;56352;55.750;13.198;2022-11-20T00:37:56;2.97;;;2.10;;
69240;SDS011;56352;55.750;13.198;2022-11-20T00:40:22;1.90;;;1.67;;
69240;SDS011;56352;55.750;13.198;2022-11-20T00:42:49;2.13;;;1.65;;
69240;SDS011;56352;55.750;13.198;2022-11-20T00:45:15;2.40;;;1.58;;
69240;SDS011;56352;55.750;13.198;2022-11-20T00:47:41;2.15;;;1.50;;
69240;SDS011;56352;55.750;13.198;2022-11-20T00:50:08;1.65;;;1.40;;
69240;SDS011;56352;55.750;13.198;2022-11-20T00:52:34;2.05;;;1.70;;
69240;SDS011;56352;55.750;13.198;2022-11-20T00:55:01;3.35;;;1.80;;
69240;SDS011;56352;55.750;13.198;2022-11-20T00:57:27;2.58;;;1.60;;
69240;SDS011;56352;55.750;13.198;2022-11-20T00:59:54;2.25;;;1.50;;
69240;SDS011;56352;55.750;13.198;2022-11-20T01:02:20;1.80;;;1.27;;
69240;SDS011;56352;55.750;13.198;2022-11-20T01:04:46;2.78;;;1.77;;
69240;SDS011;56352;55.750;13.198;2022-11-20T01:07:13;1.85;;;1.40;;
69240;SDS011;56352;55.750;13.198;2022-11-20T01:09:39;1.90;;;1.40;;
69240;SDS011;56352;55.750;13.198;2022-11-20T01:12:06;2.10;;;1.40;;
69240;SDS011;56352;55.750;13.198;2022-11-20T01:14:32;2.03;;;1.50;;
69240;SDS011;56352;55.750;13.198;2022-11-20T01:16:59;2.47;;;1.40;;
69240;SDS011;56352;55.750;13.198;2022-11-20T01:19:25;1.83;;;1.35;;
69240;SDS011;56352;55.750;13.198;2022-11-20T01:21:52;2.38;;;1.35;;
69240;SDS011;56352;55.750;13.198;2022-11-20T01:24:20;2.25;;;1.65;;
69240;SDS011;56352;55.750;13.198;2022-11-20T01:26:47;1.88;;;1.15;;
69240;SDS011;56352;55.750;13.198;2022-11-20T01:29:15;1.58;;;1.30;;
69240;SDS011;56352;55.750;13.198;2022-11-20T01:31:41;2.13;;;1.27;;
69240;SDS011;56352;55.750;13.198;2022-11-20T01:34:16;2.67;;;1.08;;
69240;SDS011;56352;55.750;13.198;2022-11-20T01:36:43;2.17;;;1.10;;
69240;SDS011;56352;55.750;13.198;2022-11-20T01:47:09;2.15;;;1.80;;
69240;SDS011;56352;55.750;13.198;2022-11-20T01:49:41;2.65;;;1.60;;
69240;SDS011;56352;55.750;13.198;2022-11-20T01:52:15;1.88;;;1.30;;
69240;SDS011;56352;55.750;13.198;2022-11-20T01:54:45;2.65;;;1.30;;
69240;SDS011;56352;55.750;13.198;2022-11-20T01:57:12;2.05;;;1.33;;
69240;SDS011;56352;55.750;13.198;2022-11-20T01:59:40;4.03;;;1.30;;
69240;SDS011;56352;55.750;13.198;2022-11-20T02:02:08;1.95;;;1.10;;
69240;SDS011;56352;55.750;13.198;2022-11-20T02:04:35;2.83;;;1.75;;
69240;SDS011;56352;55.750;13.198;2022-11-20T02:07:02;2.50;;;2.00;;
69240;SDS011;56352;55.750;13.198;2022-11-20T02:11:57;1.98;;;1.48;;
69240;SDS011;56352;55.750;13.198;2022-11-20T02:14:24;2.67;;;1.70;;
69240;SDS011;56352;55.750;13.198;2022-11-20T02:16:51;1.85;;;1.50;;
69240;SDS011;56352;55.750;13.198;2022-11-20T02:19:23;6.20;;;1.88;;
69240;SDS011;56352;55.750;13.198;2022-11-20T02:24:26;2.25;;;1.40;;
69240;SDS011;56352;55.750;13.198;2022-11-20T02:27:02;2.00;;;1.45;;
69240;SDS011;56352;55.750;13.198;2022-11-20T02:32:05;1.73;;;1.27;;
69240;SDS011;56352;55.750;13.198;2022-11-20T02:34:32;1.50;;;1.25;;
69240;SDS011;56352;55.750;13.198;2022-11-20T02:36:58;1.80;;;1.40;;
69240;SDS011;56352;55.750;13.198;2022-11-20T02:39:25;1.65;;;1.40;;
69240;SDS011;56352;55.750;13.198;2022-11-20T02:41:53;1.80;;;1.30;;
69240;SDS011;56352;55.750;13.198;2022-11-20T02:44:20;2.15;;;1.30;;
69240;SDS011;56352;55.750;13.198;2022-11-20T02:46:46;2.00;;;1.52;;
69240;SDS011;56352;55.750;13.198;2022-11-20T02:49:13;2.03;;;1.58;;
69240;SDS011;56352;55.750;13.198;2022-11-20T02:51:39;2.15;;;1.70;;
69240;SDS011;56352;55.750;13.198;2022-11-20T02:54:06;2.75;;;2.08;;
69240;SDS011;56352;55.750;13.198;2022-11-20T02:56:32;3.97;;;2.72;;
69240;SDS011;56352;55.750;13.198;2022-11-20T02:58:59;3.78;;;2.60;;
69240;SDS011;56352;55.750;13.198;2022-11-20T03:01:25;3.63;;;2.50;;
69240;SDS011;56352;55.750;13.198;2022-11-20T03:03:51;3.05;;;2.03;;
69240;SDS011;56352;55.750;13.198;2022-11-20T03:06:20;2.83;;;2.00;;
69240;SDS011;56352;55.750;13.198;2022-11-20T03:08:47;3.35;;;1.73;;
69240;SDS011;56352;55.750;13.198;2022-11-20T03:11:13;2.28;;;1.60;;
69240;SDS011;56352;55.750;13.198;2022-11-20T03:13:40;2.70;;;1.55;;
69240;SDS011;56352;55.750;13.198;2022-11-20T03:16:13;2.13;;;1.40;;
69240;SDS011;56352;55.750;13.198;2022-11-20T03:18:40;2.28;;;1.58;;
69240;SDS011;56352;55.750;13.198;2022-11-20T03:21:08;3.13;;;1.58;;
69240;SDS011;56352;55.750;13.198;2022-11-20T03:23:34;2.72;;;1.80;;
69240;SDS011;56352;55.750;13.198;2022-11-20T03:26:21;2.10;;;1.42;;
69240;SDS011;56352;55.750;13.198;2022-11-20T03:28:49;2.15;;;1.58;;
69240;SDS011;56352;55.750;13.198;2022-11-20T03:31:16;4.13;;;2.30;;
69240;SDS011;56352;55.750;13.198;2022-11-20T03:33:43;2.65;;;1.90;;
69240;SDS011;56352;55.750;13.198;2022-11-20T03:36:11;1.77;;;1.60;;
69240;SDS011;56352;55.750;13.198;2022-11-20T03:38:38;2.08;;;1.38;;
69240;SDS011;56352;55.750;13.198;2022-11-20T03:41:06;1.52;;;1.40;;
69240;SDS011;56352;55.750;13.198;2022-11-20T03:43:33;1.98;;;1.33;;
69240;SDS011;56352;55.750;13.198;2022-11-20T03:45:59;2.45;;;1.30;;
69240;SDS011;56352;55.750;13.198;2022-11-20T03:48:26;1.85;;;1.35;;
69240;SDS011;56352;55.750;13.198;2022-11-20T03:50:53;2.85;;;1.52;;
69240;SDS011;56352;55.750;13.198;2022-11-20T03:53:19;3.00;;;1.50;;
69240;SDS011;56352;55.750;13.198;2022-11-20T03:55:50;1.88;;;1.30;;
69240;SDS011;56352;55.750;13.198;2022-11-20T03:58:16;2.25;;;1.38;;
69240;SDS011;56352;55.750;13.198;2022-11-20T04:00:44;2.35;;;1.63;;
69240;SDS011;56352;55.750;13.198;2022-11-20T04:03:10;2.78;;;2.08;;
69240;SDS011;56352;55.750;13.198;2022-11-20T04:05:36;4.13;;;2.47;;
69240;SDS011;56352;55.750;13.198;2022-11-20T04:08:03;3.92;;;3.33;;
69240;SDS011;56352;55.750;13.198;2022-11-20T04:10:29;5.80;;;3.47;;
69240;SDS011;56352;55.750;13.198;2022-11-20T04:12:56;4.68;;;3.97;;
69240;SDS011;56352;55.750;13.198;2022-11-20T04:15:22;4.57;;;3.53;;
69240;SDS011;56352;55.750;13.198;2022-11-20T04:17:49;3.65;;;2.83;;
69240;SDS011;56352;55.750;13.198;2022-11-20T04:20:15;3.92;;;2.05;;
69240;SDS011;56352;55.750;13.198;2022-11-20T04:22:42;2.63;;;1.90;;
69240;SDS011;56352;55.750;13.198;2022-11-20T04:25:08;3.00;;;1.88;;
69240;SDS011;56352;55.750;13.198;2022-11-20T04:27:35;3.42;;;1.88;;
69240;SDS011;56352;55.750;13.198;2022-11-20T04:30:01;1.60;;;1.33;;
69240;SDS011;56352;55.750;13.198;2022-11-20T04:32:27;2.40;;;1.52;;
69240;SDS011;56352;55.750;13.198;2022-11-20T04:34:54;2.67;;;1.45;;
69240;SDS011;56352;55.750;13.198;2022-11-20T04:37:20;2.17;;;1.33;;
69240;SDS011;56352;55.750;13.198;2022-11-20T04:39:46;2.45;;;1.60;;
69240;SDS011;56352;55.750;13.198;2022-11-20T04:42:13;2.00;;;1.45;;
69240;SDS011;56352;55.750;13.198;2022-11-20T04:44:55;2.63;;;1.98;;
69240;SDS011;56352;55.750;13.198;2022-11-20T04:47:21;2.20;;;1.35;;
69240;SDS011;56352;55.750;13.198;2022-11-20T04:49:47;2.20;;;1.35;;
69240;SDS011;56352;55.750;13.198;2022-11-20T04:52:14;3.10;;;1.75;;
69240;SDS011;56352;55.750;13.198;2022-11-20T04:54:40;2.20;;;1.67;;
69240;SDS011;56352;55.750;13.198;2022-11-20T04:57:07;1.88;;;1.35;;
69240;SDS011;56352;55.750;13.198;2022-11-20T04:59:39;2.13;;;1.63;;
69240;SDS011;56352;55.750;13.198;2022-11-20T05:02:06;3.08;;;1.45;;
69240;SDS011;56352;55.750;13.198;2022-11-20T05:04:32;2.83;;;1.60;;
69240;SDS011;56352;55.750;13.198;2022-11-20T05:06:58;2.55;;;1.35;;
69240;SDS011;56352;55.750;13.198;2022-11-20T05:09:25;2.78;;;1.65;;
69240;SDS011;56352;55.750;13.198;2022-11-20T05:11:51;3.97;;;1.85;;
69240;SDS011;56352;55.750;13.198;2022-11-20T05:14:18;3.67;;;2.15;;
69240;SDS011;56352;55.750;13.198;2022-11-20T05:16:44;3.85;;;2.25;;
69240;SDS011;56352;55.750;13.198;2022-11-20T05:19:11;3.20;;;2.30;;
69240;SDS011;56352;55.750;13.198;2022-11-20T05:21:38;3.20;;;1.98;;
69240;SDS011;56352;55.750;13.198;2022-11-20T05:24:04;3.20;;;2.20;;
69240;SDS011;56352;55.750;13.198;2022-11-20T05:26:32;3.15;;;1.90;;
69240;SDS011;56352;55.750;13.198;2022-11-20T05:28:59;3.30;;;1.73;;
69240;SDS011;56352;55.750;13.198;2022-11-20T05:31:26;2.88;;;1.80;;
69240;SDS011;56352;55.750;13.198;2022-11-20T05:33:54;3.08;;;2.10;;
69240;SDS011;56352;55.750;13.198;2022-11-20T05:36:20;2.55;;;1.85;;
69240;SDS011;56352;55.750;13.198;2022-11-20T05:38:47;2.38;;;1.90;;
69240;SDS011;56352;55.750;13.198;2022-11-20T05:41:17;2.28;;;1.75;;
69240;SDS011;56352;55.750;13.198;2022-11-20T05:43:44;3.10;;;1.75;;
69240;SDS011;56352;55.750;13.198;2022-11-20T05:46:12;2.95;;;1.88;;
69240;SDS011;56352;55.750;13.198;2022-11-20T05:48:40;2.40;;;1.88;;
69240;SDS011;56352;55.750;13.198;2022-11-20T05:51:07;1.90;;;1.48;;
69240;SDS011;56352;55.750;13.198;2022-11-20T05:53:35;3.20;;;1.67;;
69240;SDS011;56352;55.750;13.198;2022-11-20T05:56:03;2.60;;;1.75;;
69240;SDS011;56352;55.750;13.198;2022-11-20T05:58:30;4.70;;;1.80;;
69240;SDS011;56352;55.750;13.198;2022-11-20T06:01:04;2.35;;;1.48;;
69240;SDS011;56352;55.750;13.198;2022-11-20T06:03:30;1.85;;;1.40;;
69240;SDS011;56352;55.750;13.198;2022-11-20T06:05:58;2.05;;;1.60;;
69240;SDS011;56352;55.750;13.198;2022-11-20T06:08:24;2.33;;;1.30;;
69240;SDS011;56352;55.750;13.198;2022-11-20T06:10:51;1.55;;;1.20;;
69240;SDS011;56352;55.750;13.198;2022-11-20T06:13:17;2.30;;;1.48;;
69240;SDS011;56352;55.750;13.198;2022-11-20T06:15:51;2.53;;;1.70;;
69240;SDS011;56352;55.750;13.198;2022-11-20T06:18:17;2.60;;;1.73;;
69240;SDS011;56352;55.750;13.198;2022-11-20T06:20:44;2.95;;;1.33;;
69240;SDS011;56352;55.750;13.198;2022-11-20T06:23:11;2.25;;;1.50;;
69240;SDS011;56352;55.750;13.198;2022-11-20T06:25:40;2.45;;;1.50;;
69240;SDS011;56352;55.750;13.198;2022-11-20T06:28:07;2.85;;;1.83;;
69240;SDS011;56352;55.750;13.198;2022-11-20T06:30:33;2.08;;;1.55;;
69240;SDS011;56352;55.750;13.198;2022-11-20T06:33:00;4.38;;;1.80;;
69240;SDS011;56352;55.750;13.198;2022-11-20T06:35:26;2.45;;;1.48;;
69240;SDS011;56352;55.750;13.198;2022-11-20T06:37:52;3.63;;;2.20;;
69240;SDS011;56352;55.750;13.198;2022-11-20T06:40:19;1.88;;;1.55;;
69240;SDS011;56352;55.750;13.198;2022-11-20T06:42:46;3.40;;;2.13;;
69240;SDS011;56352;55.750;13.198;2022-11-20T06:45:12;2.17;;;1.45;;
69240;SDS011;56352;55.750;13.198;2022-11-20T06:47:38;1.77;;;1.30;;
69240;SDS011;56352;55.750;13.198;2022-11-20T06:50:05;2.45;;;1.48;;
69240;SDS011;56352;55.750;13.198;2022-11-20T06:52:32;2.88;;;1.48;;
69240;SDS011;56352;55.750;13.198;2022-11-20T06:54:58;1.60;;;1.10;;
69240;SDS011;56352;55.750;13.198;2022-11-20T06:57:25;2.00;;;1.35;;
69240;SDS011;56352;55.750;13.198;2022-11-20T06:59:51;2.22;;;1.38;;
69240;SDS011;56352;55.750;13.198;2022-11-20T07:02:18;2.10;;;1.60;;
69240;SDS011;56352;55.750;13.198;2022-11-20T07:04:44;2.08;;;1.45;;
69240;SDS011;56352;55.750;13.198;2022-11-20T07:07:10;2.42;;;1.70;;
69240;SDS011;56352;55.750;13.198;2022-11-20T07:09:37;2.97;;;1.88;;
69240;SDS011;56352;55.750;13.198;2022-11-20T07:12:03;2.20;;;1.40;;
69240;SDS011;56352;55.750;13.198;2022-11-20T07:14:30;2.92;;;2.00;;
69240;SDS011;56352;55.750;13.198;2022-11-20T07:16:56;3.67;;;2.42;;
69240;SDS011;56352;55.750;13.198;2022-11-20T07:19:23;5.18;;;2.42;;
69240;SDS011;56352;55.750;13.198;2022-11-20T07:21:49;3.72;;;1.95;;
69240;SDS011;56352;55.750;13.198;2022-11-20T07:24:16;3.35;;;2.15;;
69240;SDS011;56352;55.750;13.198;2022-11-20T07:26:45;4.30;;;2.10;;
69240;SDS011;56352;55.750;13.198;2022-11-20T07:29:13;6.78;;;2.42;;
69240;SDS011;56352;55.750;13.198;2022-11-20T07:31:39;4.63;;;2.10;;
69240;SDS011;56352;55.750;13.198;2022-11-20T07:34:06;2.97;;;2.00;;
69240;SDS011;56352;55.750;13.198;2022-11-20T07:36:32;4.10;;;2.40;;
69240;SDS011;56352;55.750;13.198;2022-11-20T07:38:59;2.38;;;1.80;;
69240;SDS011;56352;55.750;13.198;2022-11-20T07:41:25;3.10;;;2.38;;
69240;SDS011;56352;55.750;13.198;2022-11-20T07:43:51;2.95;;;1.80;;
69240;SDS011;56352;55.750;13.198;2022-11-20T07:46:18;3.22;;;1.80;;
69240;SDS011;56352;55.750;13.198;2022-11-20T07:48:45;3.33;;;1.98;;
69240;SDS011;56352;55.750;13.198;2022-11-20T07:51:11;3.65;;;2.42;;
69240;SDS011;56352;55.750;13.198;2022-11-20T07:53:37;5.00;;;2.10;;
69240;SDS011;56352;55.750;13.198;2022-11-20T07:56:04;3.13;;;2.10;;
69240;SDS011;56352;55.750;13.198;2022-11-20T07:58:30;3.55;;;2.08;;
69240;SDS011;56352;55.750;13.198;2022-11-20T08:01:03;1.98;;;1.42;;
69240;SDS011;56352;55.750;13.198;2022-11-20T08:03:30;2.00;;;1.70;;
69240;SDS011;56352;55.750;13.198;2022-11-20T08:06:00;2.45;;;1.77;;
69240;SDS011;56352;55.750;13.198;2022-11-20T08:08:29;3.95;;;2.20;;
69240;SDS011;56352;55.750;13.198;2022-11-20T08:10:59;3.65;;;1.80;;
69240;SDS011;56352;55.750;13.198;2022-11-20T08:13:44;3.50;;;2.20;;
69240;SDS011;56352;55.750;13.198;2022-11-20T08:16:29;2.35;;;1.80;;
69240;SDS011;56352;55.750;13.198;2022-11-20T08:18:56;3.58;;;1.98;;
69240;SDS011;56352;55.750;13.198;2022-11-20T08:21:22;2.38;;;1.77;;
69240;SDS011;56352;55.750;13.198;2022-11-20T08:23:50;2.38;;;1.80;;
69240;SDS011;56352;55.750;13.198;2022-11-20T08:26:16;2.40;;;1.80;;
69240;SDS011;56352;55.750;13.198;2022-11-20T08:28:42;3.15;;;2.17;;
69240;SDS011;56352;55.750;13.198;2022-11-20T08:31:10;2.78;;;1.92;;
69240;SDS011;56352;55.750;13.198;2022-11-20T08:33:36;3.05;;;2.05;;
69240;SDS011;56352;55.750;13.198;2022-11-20T08:36:03;2.80;;;2.00;;
69240;SDS011;56352;55.750;13.198;2022-11-20T08:38:30;3.08;;;2.00;;
69240;SDS011;56352;55.750;13.198;2022-11-20T08:40:57;2.95;;;2.00;;
69240;SDS011;56352;55.750;13.198;2022-11-20T08:43:42;3.90;;;2.65;;
69240;SDS011;56352;55.750;13.198;2022-11-20T08:46:09;3.75;;;2.65;;
69240;SDS011;56352;55.750;13.198;2022-11-20T08:48:35;4.25;;;2.42;;
69240;SDS011;56352;55.750;13.198;2022-11-20T08:51:02;5.57;;;2.17;;
69240;SDS011;56352;55.750;13.198;2022-11-20T08:53:28;3.85;;;2.45;;
69240;SDS011;56352;55.750;13.198;2022-11-20T08:55:56;3.75;;;2.30;;
69240;SDS011;56352;55.750;13.198;2022-11-20T08:58:22;3.88;;;2.45;;
69240;SDS011;56352;55.750;13.198;2022-11-20T09:00:49;3.00;;;2.45;;
69240;SDS011;56352;55.750;13.198;2022-11-20T09:03:15;2.80;;;2.33;;
69240;SDS011;56352;55.750;13.198;2022-11-20T09:05:41;4.65;;;2.63;;
69240;SDS011;56352;55.750;13.198;2022-11-20T09:08:09;2.95;;;2.08;;
69240;SDS011;56352;55.750;13.198;2022-11-20T09:10:35;3.65;;;2.63;;
69240;SDS011;56352;55.750;13.198;2022-11-20T09:13:02;3.88;;;2.45;;
69240;SDS011;56352;55.750;13.198;2022-11-20T09:15:29;4.05;;;2.53;;
69240;SDS011;56352;55.750;13.198;2022-11-20T09:18:01;4.85;;;2.60;;
69240;SDS011;56352;55.750;13.198;2022-11-20T09:20:29;4.43;;;2.60;;
69240;SDS011;56352;55.750;13.198;2022-11-20T09:22:56;3.50;;;2.58;;
69240;SDS011;56352;55.750;13.198;2022-11-20T09:25:22;4.28;;;2.90;;
69240;SDS011;56352;55.750;13.198;2022-11-20T09:27:54;3.55;;;2.35;;
69240;SDS011;56352;55.750;13.198;2022-11-20T09:30:21;3.63;;;2.55;;
69240;SDS011;56352;55.750;13.198;2022-11-20T09:32:47;4.93;;;2.50;;
69240;SDS011;56352;55.750;13.198;2022-11-20T09:35:13;4.65;;;2.95;;
69240;SDS011;56352;55.750;13.198;2022-11-20T09:37:40;5.57;;;2.90;;
69240;SDS011;56352;55.750;13.198;2022-11-20T09:40:09;4.00;;;3.00;;
69240;SDS011;56352;55.750;13.198;2022-11-20T09:55:41;4.95;;;3.55;;
69240;SDS011;56352;55.750;13.198;2022-11-20T09:58:51;5.53;;;3.67;;
69240;SDS011;56352;55.750;13.198;2022-11-20T10:01:00;6.40;;;4.38;;
69240;SDS011;56352;55.750;13.198;2022-11-20T10:03:35;5.10;;;4.57;;
69240;SDS011;56352;55.750;13.198;2022-11-20T10:06:02;7.25;;;5.13;;
69240;SDS011;56352;55.750;13.198;2022-11-20T10:08:34;6.50;;;4.22;;
69240;SDS011;56352;55.750;13.198;2022-11-20T10:16:21;3.08;;;2.53;;
69240;SDS011;56352;55.750;13.198;2022-11-20T10:19:05;4.30;;;2.33;;
69240;SDS011;56352;55.750;13.198;2022-11-20T10:27:24;3.20;;;2.00;;
69240;SDS011;56352;55.750;13.198;2022-11-20T10:30:03;2.78;;;2.00;;
69240;SDS011;56352;55.750;13.198;2022-11-20T10:32:32;2.92;;;1.83;;
69240;SDS011;56352;55.750;13.198;2022-11-20T10:37:50;2.80;;;1.83;;
69240;SDS011;56352;55.750;13.198;2022-11-20T10:40:38;2.90;;;1.90;;
69240;SDS011;56352;55.750;13.198;2022-11-20T10:43:13;2.75;;;1.90;;
69240;SDS011;56352;55.750;13.198;2022-11-20T10:45:49;2.05;;;1.73;;
69240;SDS011;56352;55.750;13.198;2022-11-20T10:48:23;4.05;;;2.47;;
69240;SDS011;56352;55.750;13.198;2022-11-20T10:50:55;3.92;;;2.45;;
69240;SDS011;56352;55.750;13.198;2022-11-20T10:53:30;3.25;;;2.50;;
69240;SDS011;56352;55.750;13.198;2022-11-20T10:56:00;4.03;;;2.47;;
69240;SDS011;56352;55.750;13.198;2022-11-20T10:58:38;4.00;;;2.30;;
69240;SDS011;56352;55.750;13.198;2022-11-20T11:01:19;4.03;;;2.38;;
69240;SDS011;56352;55.750;13.198;2022-11-20T11:06:30;3.75;;;2.40;;
69240;SDS011;56352;55.750;13.198;2022-11-20T11:09:01;4.30;;;2.85;;
69240;SDS011;56352;55.750;13.198;2022-11-20T11:11:30;3.15;;;2.60;;
69240;SDS011;56352;55.750;13.198;2022-11-20T11:14:07;3.23;;;2.40;;
69240;SDS011;56352;55.750;13.198;2022-11-20T11:16:35;3.20;;;2.38;;
69240;SDS011;56352;55.750;13.198;2022-11-20T11:19:05;3.53;;;2.58;;
69240;SDS011;56352;55.750;13.198;2022-11-20T11:21:32;3.25;;;2.55;;
69240;SDS011;56352;55.750;13.198;2022-11-20T11:23:59;3.33;;;2.20;;
69240;SDS011;56352;55.750;13.198;2022-11-20T11:27:02;6.22;;;2.75;;
69240;SDS011;56352;55.750;13.198;2022-11-20T11:29:41;5.03;;;3.38;;
69240;SDS011;56352;55.750;13.198;2022-11-20T11:32:11;4.97;;;3.47;;
69240;SDS011;56352;55.750;13.198;2022-11-20T11:34:37;3.83;;;2.67;;
69240;SDS011;56352;55.750;13.198;2022-11-20T11:37:04;3.05;;;2.30;;
69240;SDS011;56352;55.750;13.198;2022-11-20T11:39:31;2.40;;;2.08;;
69240;SDS011;56352;55.750;13.198;2022-11-20T11:41:59;3.50;;;2.05;;
69240;SDS011;56352;55.750;13.198;2022-11-20T11:47:19;2.63;;;1.80;;
69240;SDS011;56352;55.750;13.198;2022-11-20T11:49:47;3.42;;;2.20;;
69240;SDS011;56352;55.750;13.198;2022-11-20T11:54:53;4.90;;;2.45;;
69240;SDS011;56352;55.750;13.198;2022-11-20T12:07:58;2.40;;;1.80;;
69240;SDS011;56352;55.750;13.198;2022-11-20T12:12:55;2.55;;;1.77;;
69240;SDS011;56352;55.750;13.198;2022-11-20T12:15:30;2.92;;;1.80;;
69240;SDS011;56352;55.750;13.198;2022-11-20T12:17:57;2.45;;;1.70;;
69240;SDS011;56352;55.750;13.198;2022-11-20T12:20:26;2.13;;;1.65;;
69240;SDS011;56352;55.750;13.198;2022-11-20T12:30:21;3.47;;;1.92;;
69240;SDS011;56352;55.750;13.198;2022-11-20T12:43:37;2.85;;;2.00;;
69240;SDS011;56352;55.750;13.198;2022-11-20T12:46:39;3.40;;;1.75;;
69240;SDS011;56352;55.750;13.198;2022-11-20T12:49:15;3.83;;;1.88;;
69240;SDS011;56352;55.750;13.198;2022-11-20T12:52:05;2.60;;;1.88;;
69240;SDS011;56352;55.750;13.198;2022-11-20T12:55:07;2.43;;;1.73;;
69240;SDS011;56352;55.750;13.198;2022-11-20T13:00:24;2.20;;;1.73;;
69240;SDS011;56352;55.750;13.198;2022-11-20T13:03:11;3.33;;;1.95;;
69240;SDS011;56352;55.750;13.198;2022-11-20T13:08:25;3.05;;;1.50;;
69240;SDS011;56352;55.750;13.198;2022-11-20T13:13:25;3.03;;;2.00;;
69240;SDS011;56352;55.750;13.198;2022-11-20T13:15:58;3.35;;;1.95;;
69240;SDS011;56352;55.750;13.198;2022-11-20T13:18:29;2.13;;;1.88;;
69240;SDS011;56352;55.750;13.198;2022-11-20T13:20:57;2.40;;;1.90;;
69240;SDS011;56352;55.750;13.198;2022-11-20T13:23:24;2.20;;;1.80;;
69240;SDS011;56352;55.750;13.198;2022-11-20T13:26:17;3.20;;;2.08;;
69240;SDS011;56352;55.750;13.198;2022-11-20T13:28:59;3.70;;;1.90;;
69240;SDS011;56352;55.750;13.198;2022-11-20T13:31:44;2.47;;;1.80;;
69240;SDS011;56352;55.750;13.198;2022-11-20T13:34:12;3.00;;;2.05;;
69240;SDS011;56352;55.750;13.198;2022-11-20T13:36:51;2.97;;;1.75;;
69240;SDS011;56352;55.750;13.198;2022-11-20T13:39:35;3.05;;;1.90;;
69240;SDS011;56352;55.750;13.198;2022-11-20T13:42:15;2.03;;;1.52;;
69240;SDS011;56352;55.750;13.198;2022-11-20T13:44:50;2.13;;;1.63;;
69240;SDS011;56352;55.750;13.198;2022-11-20T13:47:23;3.08;;;2.00;;
69240;SDS011;56352;55.750;13.198;2022-11-20T13:49:51;2.40;;;1.73;;
69240;SDS011;56352;55.750;13.198;2022-11-20T13:55:14;2.78;;;1.75;;
69240;SDS011;56352;55.750;13.198;2022-11-20T14:00:22;2.95;;;2.08;;
69240;SDS011;56352;55.750;13.198;2022-11-20T14:02:57;2.70;;;1.85;;
69240;SDS011;56352;55.750;13.198;2022-11-20T14:05:27;3.40;;;1.88;;
69240;SDS011;56352;55.750;13.198;2022-11-20T14:07:54;5.13;;;2.30;;
69240;SDS011;56352;55.750;13.198;2022-11-20T14:12:57;3.58;;;2.20;;
69240;SDS011;56352;55.750;13.198;2022-11-20T14:15:28;2.97;;;1.90;;
69240;SDS011;56352;55.750;13.198;2022-11-20T14:17:57;3.40;;;2.08;;
69240;SDS011;56352;55.750;13.198;2022-11-20T14:20:25;4.80;;;2.03;;
69240;SDS011;56352;55.750;13.198;2022-11-20T14:22:53;3.10;;;2.08;;
69240;SDS011;56352;55.750;13.198;2022-11-20T14:25:21;3.38;;;2.05;;
69240;SDS011;56352;55.750;13.198;2022-11-20T14:27:56;2.70;;;1.83;;
69240;SDS011;56352;55.750;13.198;2022-11-20T14:30:25;3.95;;;2.38;;
69240;SDS011;56352;55.750;13.198;2022-11-20T14:32:54;3.47;;;2.22;;
69240;SDS011;56352;55.750;13.198;2022-11-20T14:35:26;4.53;;;2.15;;
69240;SDS011;56352;55.750;13.198;2022-11-20T14:37:55;3.10;;;2.33;;
69240;SDS011;56352;55.750;13.198;2022-11-20T14:42:57;2.92;;;1.88;;
69240;SDS011;56352;55.750;13.198;2022-11-20T14:45:25;3.67;;;2.03;;
69240;SDS011;56352;55.750;13.198;2022-11-20T14:47:52;3.22;;;1.80;;
69240;SDS011;56352;55.750;13.198;2022-11-20T14:50:24;4.03;;;2.10;;
69240;SDS011;56352;55.750;13.198;2022-11-20T14:52:56;3.53;;;2.03;;
69240;SDS011;56352;55.750;13.198;2022-11-20T14:55:25;2.78;;;1.98;;
69240;SDS011;56352;55.750;13.198;2022-11-20T14:58:01;3.40;;;2.33;;
69240;SDS011;56352;55.750;13.198;2022-11-20T15:00:32;3.22;;;2.17;;
69240;SDS011;56352;55.750;13.198;2022-11-20T15:02:59;2.95;;;2.00;;
69240;SDS011;56352;55.750;13.198;2022-11-20T15:05:43;3.05;;;2.30;;
69240;SDS011;56352;55.750;13.198;2022-11-20T15:08:14;4.45;;;2.38;;
69240;SDS011;56352;55.750;13.198;2022-11-20T15:10:51;4.32;;;2.50;;
69240;SDS011;56352;55.750;13.198;2022-11-20T15:15:53;3.88;;;2.65;;
69240;SDS011;56352;55.750;13.198;2022-11-20T15:18:22;3.20;;;2.17;;
69240;SDS011;56352;55.750;13.198;2022-11-20T15:20:50;3.20;;;2.15;;
69240;SDS011;56352;55.750;13.198;2022-11-20T15:23:18;3.10;;;2.17;;
69240;SDS011;56352;55.750;13.198;2022-11-20T15:25:46;4.60;;;1.95;;
69240;SDS011;56352;55.750;13.198;2022-11-20T15:28:17;3.28;;;2.15;;
69240;SDS011;56352;55.750;13.198;2022-11-20T15:30:55;3.33;;;2.40;;
69240;SDS011;56352;55.750;13.198;2022-11-20T15:33:22;3.90;;;2.55;;
69240;SDS011;56352;55.750;13.198;2022-11-20T15:35:49;3.53;;;2.30;;
69240;SDS011;56352;55.750;13.198;2022-11-20T15:38:15;3.88;;;2.35;;
69240;SDS011;56352;55.750;13.198;2022-11-20T15:40:42;4.20;;;2.40;;
69240;SDS011;56352;55.750;13.198;2022-11-20T15:43:09;4.38;;;2.90;;
69240;SDS011;56352;55.750;13.198;2022-11-20T15:45:45;4.35;;;2.53;;
69240;SDS011;56352;55.750;13.198;2022-11-20T15:48:15;3.85;;;2.55;;
69240;SDS011;56352;55.750;13.198;2022-11-20T15:50:46;3.47;;;2.05;;
69240;SDS011;56352;55.750;13.198;2022-11-20T15:53:16;2.42;;;2.00;;
69240;SDS011;56352;55.750;13.198;2022-11-20T15:55:43;3.47;;;2.10;;
69240;SDS011;56352;55.750;13.198;2022-11-20T15:58:10;3.17;;;2.20;;
69240;SDS011;56352;55.750;13.198;2022-11-20T16:00:37;4.43;;;2.30;;
69240;SDS011;56352;55.750;13.198;2022-11-20T16:03:03;2.47;;;2.10;;
69240;SDS011;56352;55.750;13.198;2022-11-20T16:05:30;4.95;;;2.85;;
69240;SDS011;56352;55.750;13.198;2022-11-20T16:07:57;3.83;;;2.00;;
69240;SDS011;56352;55.750;13.198;2022-11-20T16:10:23;2.80;;;2.22;;
69240;SDS011;56352;55.750;13.198;2022-11-20T16:12:50;4.88;;;2.70;;
69240;SDS011;56352;55.750;13.198;2022-11-20T16:15:35;4.68;;;2.95;;
69240;SDS011;56352;55.750;13.198;2022-11-20T16:18:11;4.07;;;2.67;;
69240;SDS011;56352;55.750;13.198;2022-11-20T16:20:42;6.25;;;3.03;;
69240;SDS011;56352;55.750;13.198;2022-11-20T16:23:09;5.82;;;2.83;;
69240;SDS011;56352;55.750;13.198;2022-11-20T16:25:36;4.82;;;2.47;;
69240;SDS011;56352;55.750;13.198;2022-11-20T16:28:03;5.88;;;3.00;;